sensor_id;sensor_type;location;lat;lon;timestamp;P1;durP1;ratioP1;P2;durP2;ratioP2
10315;SDS011;5203;48.976;8.306;2023-05-14T00:00:12;7.50;;;7.00;;
10315;SDS011;5203;48.976;8.306;2023-05-14T00:02:39;8.63;;;7.97;;
10315;SDS011;5203;48.976;8.306;2023-05-14T00:05:05;7.67;;;6.97;;
10315;SDS011;5203;48.976;8.306;2023-05-14T00:07:31;8.20;;;7.50;;
10315;SDS011;5203;48.976;8.306;2023-05-14T00:09:57;8.33;;;7.57;;
10315;SDS011;5203;48.976;8.306;2023-05-14T00:12:23;8.00;;;7.30;;
10315;SDS011;5203;48.976;8.306;2023-05-14T00:14:50;7.90;;;7.20;;
10315;SDS011;5203;48.976;8.306;2023-05-14T00:17:16;7.43;;;6.83;;
10315;SDS011;5203;48.976;8.306;2023-05-14T00:19:42;8.33;;;7.63;;
10315;SDS011;5203;48.976;8.306;2023-05-14T00:22:07;7.57;;;6.87;;
10315;SDS011;5203;48.976;8.306;2023-05-14T00:24:33;8.80;;;8.10;;
10315;SDS011;5203;48.976;8.306;2023-05-14T00:26:59;8.07;;;7.37;;
10315;SDS011;5203;48.976;8.306;2023-05-14T00:29:25;8.07;;;7.50;;
10315;SDS011;5203;48.976;8.306;2023-05-14T00:31:51;8.73;;;7.87;;
10315;SDS011;5203;48.976;8.306;2023-05-14T00:34:17;8.80;;;8.13;;
10315;SDS011;5203;48.976;8.306;2023-05-14T00:36:42;8.63;;;8.03;;
10315;SDS011;5203;48.976;8.306;2023-05-14T00:39:08;8.67;;;7.83;;
10315;SDS011;5203;48.976;8.306;2023-05-14T00:41:34;8.63;;;7.80;;
10315;SDS011;5203;48.976;8.306;2023-05-14T00:43:59;8.47;;;7.77;;
10315;SDS011;5203;48.976;8.306;2023-05-14T00:46:26;9.40;;;8.07;;
10315;SDS011;5203;48.976;8.306;2023-05-14T00:48:52;8.17;;;7.57;;
10315;SDS011;5203;48.976;8.306;2023-05-14T00:51:18;8.97;;;8.17;;
10315;SDS011;5203;48.976;8.306;2023-05-14T00:53:44;10.40;;;8.33;;
10315;SDS011;5203;48.976;8.306;2023-05-14T00:56:10;8.23;;;7.63;;
10315;SDS011;5203;48.976;8.306;2023-05-14T00:58:37;8.97;;;8.07;;
10315;SDS011;5203;48.976;8.306;2023-05-14T01:01:03;9.93;;;8.93;;
10315;SDS011;5203;48.976;8.306;2023-05-14T01:03:29;9.40;;;8.50;;
10315;SDS011;5203;48.976;8.306;2023-05-14T01:08:49;8.03;;;7.43;;
10315;SDS011;5203;48.976;8.306;2023-05-14T01:11:28;8.97;;;8.10;;
10315;SDS011;5203;48.976;8.306;2023-05-14T01:14:08;8.23;;;7.43;;
10315;SDS011;5203;48.976;8.306;2023-05-14T01:16:42;8.37;;;7.67;;
10315;SDS011;5203;48.976;8.306;2023-05-14T01:19:20;8.13;;;7.53;;
10315;SDS011;5203;48.976;8.306;2023-05-14T01:22:03;8.70;;;7.90;;
10315;SDS011;5203;48.976;8.306;2023-05-14T01:24:29;8.63;;;7.83;;
10315;SDS011;5203;48.976;8.306;2023-05-14T01:26:57;9.03;;;8.20;;
10315;SDS011;5203;48.976;8.306;2023-05-14T01:29:29;8.63;;;8.03;;
10315;SDS011;5203;48.976;8.306;2023-05-14T01:31:58;8.63;;;7.83;;
10315;SDS011;5203;48.976;8.306;2023-05-14T01:34:24;9.10;;;8.33;;
10315;SDS011;5203;48.976;8.306;2023-05-14T01:36:54;8.63;;;7.93;;
10315;SDS011;5203;48.976;8.306;2023-05-14T01:39:22;7.83;;;7.33;;
10315;SDS011;5203;48.976;8.306;2023-05-14T01:41:48;8.83;;;8.03;;
10315;SDS011;5203;48.976;8.306;2023-05-14T01:44:16;9.33;;;8.63;;
10315;SDS011;5203;48.976;8.306;2023-05-14T01:46:42;8.60;;;8.00;;
10315;SDS011;5203;48.976;8.306;2023-05-14T01:49:07;8.53;;;7.87;;
10315;SDS011;5203;48.976;8.306;2023-05-14T01:51:33;8.47;;;7.77;;
10315;SDS011;5203;48.976;8.306;2023-05-14T01:53:59;8.47;;;7.87;;
10315;SDS011;5203;48.976;8.306;2023-05-14T01:56:24;8.90;;;8.10;;
10315;SDS011;5203;48.976;8.306;2023-05-14T01:58:51;8.77;;;8.07;;
10315;SDS011;5203;48.976;8.306;2023-05-14T02:01:17;9.73;;;7.53;;
10315;SDS011;5203;48.976;8.306;2023-05-14T02:03:42;7.73;;;7.13;;
10315;SDS011;5203;48.976;8.306;2023-05-14T02:06:08;8.20;;;7.63;;
10315;SDS011;5203;48.976;8.306;2023-05-14T02:08:33;8.07;;;7.53;;
10315;SDS011;5203;48.976;8.306;2023-05-14T02:10:59;8.07;;;7.47;;
10315;SDS011;5203;48.976;8.306;2023-05-14T02:13:25;7.90;;;7.30;;
10315;SDS011;5203;48.976;8.306;2023-05-14T02:15:50;8.43;;;7.73;;
10315;SDS011;5203;48.976;8.306;2023-05-14T02:18:16;7.90;;;7.23;;
10315;SDS011;5203;48.976;8.306;2023-05-14T02:20:42;8.37;;;7.57;;
10315;SDS011;5203;48.976;8.306;2023-05-14T02:23:08;7.83;;;7.13;;
10315;SDS011;5203;48.976;8.306;2023-05-14T02:25:33;8.00;;;7.40;;
10315;SDS011;5203;48.976;8.306;2023-05-14T02:27:59;7.77;;;7.17;;
10315;SDS011;5203;48.976;8.306;2023-05-14T02:30:25;8.30;;;7.50;;
10315;SDS011;5203;48.976;8.306;2023-05-14T02:32:50;7.90;;;7.23;;
10315;SDS011;5203;48.976;8.306;2023-05-14T02:35:16;8.37;;;7.53;;
10315;SDS011;5203;48.976;8.306;2023-05-14T02:37:41;8.10;;;7.40;;
10315;SDS011;5203;48.976;8.306;2023-05-14T02:40:07;8.00;;;7.40;;
10315;SDS011;5203;48.976;8.306;2023-05-14T02:42:33;7.40;;;6.80;;
10315;SDS011;5203;48.976;8.306;2023-05-14T02:44:59;7.33;;;6.83;;
10315;SDS011;5203;48.976;8.306;2023-05-14T02:47:25;7.47;;;6.63;;
10315;SDS011;5203;48.976;8.306;2023-05-14T02:49:50;6.80;;;6.30;;
10315;SDS011;5203;48.976;8.306;2023-05-14T02:52:16;6.87;;;6.37;;
10315;SDS011;5203;48.976;8.306;2023-05-14T02:54:41;7.03;;;6.50;;
10315;SDS011;5203;48.976;8.306;2023-05-14T02:57:07;7.33;;;6.73;;
10315;SDS011;5203;48.976;8.306;2023-05-14T02:59:33;6.70;;;6.10;;
10315;SDS011;5203;48.976;8.306;2023-05-14T03:01:58;7.13;;;6.53;;
10315;SDS011;5203;48.976;8.306;2023-05-14T03:04:24;6.77;;;6.20;;
10315;SDS011;5203;48.976;8.306;2023-05-14T03:06:49;6.67;;;6.17;;
10315;SDS011;5203;48.976;8.306;2023-05-14T03:09:15;7.23;;;6.63;;
10315;SDS011;5203;48.976;8.306;2023-05-14T03:11:41;6.40;;;6.00;;
10315;SDS011;5203;48.976;8.306;2023-05-14T03:14:06;6.67;;;6.17;;
10315;SDS011;5203;48.976;8.306;2023-05-14T03:16:32;6.37;;;5.97;;
10315;SDS011;5203;48.976;8.306;2023-05-14T03:18:57;6.43;;;5.93;;
10315;SDS011;5203;48.976;8.306;2023-05-14T03:21:23;6.63;;;6.13;;
10315;SDS011;5203;48.976;8.306;2023-05-14T03:23:50;6.40;;;6.00;;
10315;SDS011;5203;48.976;8.306;2023-05-14T03:26:16;6.07;;;5.67;;
10315;SDS011;5203;48.976;8.306;2023-05-14T03:28:42;6.50;;;5.93;;
10315;SDS011;5203;48.976;8.306;2023-05-14T03:31:08;6.47;;;5.97;;
10315;SDS011;5203;48.976;8.306;2023-05-14T03:33:34;5.83;;;5.43;;
10315;SDS011;5203;48.976;8.306;2023-05-14T03:36:00;6.03;;;5.53;;
10315;SDS011;5203;48.976;8.306;2023-05-14T03:38:26;8.00;;;6.13;;
10315;SDS011;5203;48.976;8.306;2023-05-14T03:40:51;6.47;;;5.87;;
10315;SDS011;5203;48.976;8.306;2023-05-14T03:43:17;6.60;;;6.10;;
10315;SDS011;5203;48.976;8.306;2023-05-14T03:45:43;6.00;;;5.60;;
10315;SDS011;5203;48.976;8.306;2023-05-14T03:48:08;6.43;;;6.03;;
10315;SDS011;5203;48.976;8.306;2023-05-14T03:50:34;6.60;;;6.17;;
10315;SDS011;5203;48.976;8.306;2023-05-14T03:53:00;7.17;;;6.57;;
10315;SDS011;5203;48.976;8.306;2023-05-14T03:55:25;6.53;;;6.03;;
10315;SDS011;5203;48.976;8.306;2023-05-14T03:57:51;6.27;;;5.63;;
10315;SDS011;5203;48.976;8.306;2023-05-14T04:00:17;6.30;;;5.90;;
10315;SDS011;5203;48.976;8.306;2023-05-14T04:02:43;6.50;;;6.00;;
10315;SDS011;5203;48.976;8.306;2023-05-14T04:05:08;5.77;;;5.27;;
10315;SDS011;5203;48.976;8.306;2023-05-14T04:07:34;6.00;;;5.50;;
10315;SDS011;5203;48.976;8.306;2023-05-14T04:10:00;6.00;;;5.40;;
10315;SDS011;5203;48.976;8.306;2023-05-14T04:12:27;5.83;;;5.40;;
10315;SDS011;5203;48.976;8.306;2023-05-14T04:14:52;5.93;;;5.53;;
10315;SDS011;5203;48.976;8.306;2023-05-14T04:17:18;6.00;;;5.60;;
10315;SDS011;5203;48.976;8.306;2023-05-14T04:19:44;6.27;;;5.80;;
10315;SDS011;5203;48.976;8.306;2023-05-14T04:22:09;6.27;;;5.77;;
10315;SDS011;5203;48.976;8.306;2023-05-14T04:24:35;5.90;;;5.43;;
10315;SDS011;5203;48.976;8.306;2023-05-14T04:27:00;5.73;;;5.23;;
10315;SDS011;5203;48.976;8.306;2023-05-14T04:29:26;6.87;;;6.37;;
10315;SDS011;5203;48.976;8.306;2023-05-14T04:31:52;6.13;;;5.73;;
10315;SDS011;5203;48.976;8.306;2023-05-14T04:34:17;5.97;;;5.37;;
10315;SDS011;5203;48.976;8.306;2023-05-14T04:36:43;6.53;;;5.93;;
10315;SDS011;5203;48.976;8.306;2023-05-14T04:39:08;6.03;;;5.63;;
10315;SDS011;5203;48.976;8.306;2023-05-14T04:41:36;5.97;;;5.57;;
10315;SDS011;5203;48.976;8.306;2023-05-14T04:44:02;6.60;;;6.10;;
10315;SDS011;5203;48.976;8.306;2023-05-14T04:46:28;6.60;;;6.10;;
10315;SDS011;5203;48.976;8.306;2023-05-14T04:48:54;6.80;;;6.30;;
10315;SDS011;5203;48.976;8.306;2023-05-14T04:51:20;8.07;;;7.47;;
10315;SDS011;5203;48.976;8.306;2023-05-14T04:53:46;8.37;;;7.77;;
10315;SDS011;5203;48.976;8.306;2023-05-14T04:56:12;7.83;;;7.13;;
10315;SDS011;5203;48.976;8.306;2023-05-14T04:58:37;7.30;;;6.67;;
10315;SDS011;5203;48.976;8.306;2023-05-14T05:01:03;7.90;;;7.30;;
10315;SDS011;5203;48.976;8.306;2023-05-14T05:03:30;6.97;;;6.47;;
10315;SDS011;5203;48.976;8.306;2023-05-14T05:05:55;7.23;;;6.67;;
10315;SDS011;5203;48.976;8.306;2023-05-14T05:08:21;7.70;;;7.20;;
10315;SDS011;5203;48.976;8.306;2023-05-14T05:10:47;7.00;;;6.50;;
10315;SDS011;5203;48.976;8.306;2023-05-14T05:13:13;7.00;;;6.40;;
10315;SDS011;5203;48.976;8.306;2023-05-14T05:15:40;6.90;;;6.37;;
10315;SDS011;5203;48.976;8.306;2023-05-14T05:18:06;6.40;;;5.90;;
10315;SDS011;5203;48.976;8.306;2023-05-14T05:20:32;6.57;;;6.07;;
10315;SDS011;5203;48.976;8.306;2023-05-14T05:22:58;6.17;;;5.73;;
10315;SDS011;5203;48.976;8.306;2023-05-14T05:25:23;7.50;;;6.90;;
10315;SDS011;5203;48.976;8.306;2023-05-14T05:27:49;7.10;;;6.50;;
10315;SDS011;5203;48.976;8.306;2023-05-14T05:30:15;6.53;;;5.90;;
10315;SDS011;5203;48.976;8.306;2023-05-14T05:32:40;7.53;;;7.00;;
10315;SDS011;5203;48.976;8.306;2023-05-14T05:35:06;7.20;;;6.60;;
10315;SDS011;5203;48.976;8.306;2023-05-14T05:37:32;7.27;;;6.77;;
10315;SDS011;5203;48.976;8.306;2023-05-14T05:39:58;7.03;;;6.53;;
10315;SDS011;5203;48.976;8.306;2023-05-14T05:42:23;6.77;;;6.17;;
10315;SDS011;5203;48.976;8.306;2023-05-14T05:44:50;6.80;;;6.30;;
10315;SDS011;5203;48.976;8.306;2023-05-14T05:47:15;7.33;;;6.73;;
10315;SDS011;5203;48.976;8.306;2023-05-14T05:49:41;7.87;;;7.27;;
10315;SDS011;5203;48.976;8.306;2023-05-14T05:52:07;6.97;;;6.47;;
10315;SDS011;5203;48.976;8.306;2023-05-14T05:54:32;6.33;;;5.73;;
10315;SDS011;5203;48.976;8.306;2023-05-14T05:56:58;7.00;;;6.40;;
10315;SDS011;5203;48.976;8.306;2023-05-14T05:59:24;7.10;;;6.57;;
10315;SDS011;5203;48.976;8.306;2023-05-14T06:01:50;7.00;;;6.40;;
10315;SDS011;5203;48.976;8.306;2023-05-14T06:04:15;7.53;;;6.93;;
10315;SDS011;5203;48.976;8.306;2023-05-14T06:06:41;7.07;;;6.47;;
10315;SDS011;5203;48.976;8.306;2023-05-14T06:09:07;7.13;;;6.53;;
10315;SDS011;5203;48.976;8.306;2023-05-14T06:11:33;7.47;;;6.80;;
10315;SDS011;5203;48.976;8.306;2023-05-14T06:13:59;7.07;;;6.47;;
10315;SDS011;5203;48.976;8.306;2023-05-14T06:16:25;7.03;;;6.50;;
10315;SDS011;5203;48.976;8.306;2023-05-14T06:18:51;7.17;;;6.60;;
10315;SDS011;5203;48.976;8.306;2023-05-14T06:21:17;7.03;;;6.53;;
10315;SDS011;5203;48.976;8.306;2023-05-14T06:23:43;7.53;;;6.93;;
10315;SDS011;5203;48.976;8.306;2023-05-14T06:26:09;7.70;;;7.10;;
10315;SDS011;5203;48.976;8.306;2023-05-14T06:28:34;7.40;;;6.80;;
10315;SDS011;5203;48.976;8.306;2023-05-14T06:31:00;6.33;;;5.83;;
10315;SDS011;5203;48.976;8.306;2023-05-14T06:33:26;7.20;;;6.70;;
10315;SDS011;5203;48.976;8.306;2023-05-14T06:35:58;7.60;;;6.90;;
10315;SDS011;5203;48.976;8.306;2023-05-14T06:38:25;7.80;;;7.20;;
10315;SDS011;5203;48.976;8.306;2023-05-14T06:40:50;7.47;;;6.87;;
10315;SDS011;5203;48.976;8.306;2023-05-14T06:43:19;6.90;;;6.40;;
10315;SDS011;5203;48.976;8.306;2023-05-14T06:45:51;7.20;;;6.70;;
10315;SDS011;5203;48.976;8.306;2023-05-14T06:48:17;7.50;;;6.93;;
10315;SDS011;5203;48.976;8.306;2023-05-14T06:50:44;7.37;;;6.77;;
10315;SDS011;5203;48.976;8.306;2023-05-14T06:53:10;7.77;;;7.17;;
10315;SDS011;5203;48.976;8.306;2023-05-14T06:55:36;7.50;;;6.90;;
10315;SDS011;5203;48.976;8.306;2023-05-14T06:58:01;7.30;;;6.70;;
10315;SDS011;5203;48.976;8.306;2023-05-14T07:00:28;7.40;;;6.80;;
10315;SDS011;5203;48.976;8.306;2023-05-14T07:02:54;7.23;;;6.73;;
10315;SDS011;5203;48.976;8.306;2023-05-14T07:05:19;7.20;;;6.67;;
10315;SDS011;5203;48.976;8.306;2023-05-14T07:07:45;7.67;;;7.10;;
10315;SDS011;5203;48.976;8.306;2023-05-14T07:10:11;7.80;;;7.23;;
10315;SDS011;5203;48.976;8.306;2023-05-14T07:12:36;7.43;;;6.73;;
10315;SDS011;5203;48.976;8.306;2023-05-14T07:15:02;7.10;;;6.60;;
10315;SDS011;5203;48.976;8.306;2023-05-14T07:17:28;8.37;;;7.77;;
10315;SDS011;5203;48.976;8.306;2023-05-14T07:19:54;7.97;;;7.43;;
10315;SDS011;5203;48.976;8.306;2023-05-14T07:22:20;8.67;;;7.83;;
10315;SDS011;5203;48.976;8.306;2023-05-14T07:24:46;7.13;;;6.53;;
10315;SDS011;5203;48.976;8.306;2023-05-14T07:27:11;7.53;;;7.03;;
10315;SDS011;5203;48.976;8.306;2023-05-14T07:29:37;7.60;;;7.00;;
10315;SDS011;5203;48.976;8.306;2023-05-14T07:32:03;7.43;;;6.63;;
10315;SDS011;5203;48.976;8.306;2023-05-14T07:34:28;7.30;;;6.80;;
10315;SDS011;5203;48.976;8.306;2023-05-14T07:36:54;7.60;;;7.03;;
10315;SDS011;5203;48.976;8.306;2023-05-14T07:39:20;7.87;;;7.17;;
10315;SDS011;5203;48.976;8.306;2023-05-14T07:41:46;7.37;;;6.77;;
10315;SDS011;5203;48.976;8.306;2023-05-14T07:44:11;7.53;;;6.90;;
10315;SDS011;5203;48.976;8.306;2023-05-14T07:46:37;9.10;;;8.30;;
10315;SDS011;5203;48.976;8.306;2023-05-14T07:49:02;8.17;;;7.47;;
10315;SDS011;5203;48.976;8.306;2023-05-14T07:51:28;7.63;;;7.03;;
10315;SDS011;5203;48.976;8.306;2023-05-14T07:53:54;7.43;;;6.83;;
10315;SDS011;5203;48.976;8.306;2023-05-14T07:56:20;8.17;;;7.57;;
10315;SDS011;5203;48.976;8.306;2023-05-14T07:58:46;7.57;;;7.07;;
10315;SDS011;5203;48.976;8.306;2023-05-14T08:01:12;7.77;;;7.17;;
10315;SDS011;5203;48.976;8.306;2023-05-14T08:03:38;8.07;;;7.37;;
10315;SDS011;5203;48.976;8.306;2023-05-14T08:06:03;7.93;;;7.23;;
10315;SDS011;5203;48.976;8.306;2023-05-14T08:08:29;7.17;;;6.67;;
10315;SDS011;5203;48.976;8.306;2023-05-14T08:10:55;7.60;;;7.10;;
10315;SDS011;5203;48.976;8.306;2023-05-14T08:13:21;7.37;;;6.87;;
10315;SDS011;5203;48.976;8.306;2023-05-14T08:15:46;7.60;;;7.00;;
10315;SDS011;5203;48.976;8.306;2023-05-14T08:18:12;7.18;;;6.68;;
10315;SDS011;5203;48.976;8.306;2023-05-14T08:20:37;7.40;;;6.80;;
10315;SDS011;5203;48.976;8.306;2023-05-14T08:23:03;7.28;;;6.60;;
10315;SDS011;5203;48.976;8.306;2023-05-14T08:25:29;7.40;;;6.90;;
10315;SDS011;5203;48.976;8.306;2023-05-14T08:27:54;7.57;;;6.80;;
10315;SDS011;5203;48.976;8.306;2023-05-14T08:30:20;7.10;;;6.60;;
10315;SDS011;5203;48.976;8.306;2023-05-14T08:32:46;7.40;;;6.80;;
10315;SDS011;5203;48.976;8.306;2023-05-14T08:35:12;7.40;;;6.90;;
10315;SDS011;5203;48.976;8.306;2023-05-14T08:37:37;7.60;;;6.90;;
10315;SDS011;5203;48.976;8.306;2023-05-14T08:40:03;7.27;;;6.57;;
10315;SDS011;5203;48.976;8.306;2023-05-14T08:42:29;7.60;;;7.00;;
10315;SDS011;5203;48.976;8.306;2023-05-14T08:44:56;7.50;;;7.00;;
10315;SDS011;5203;48.976;8.306;2023-05-14T08:47:26;7.28;;;6.75;;
10315;SDS011;5203;48.976;8.306;2023-05-14T08:50:00;7.07;;;6.57;;
10315;SDS011;5203;48.976;8.306;2023-05-14T08:52:30;7.18;;;6.57;;
10315;SDS011;5203;48.976;8.306;2023-05-14T08:55:00;6.85;;;6.30;;
10315;SDS011;5203;48.976;8.306;2023-05-14T08:57:28;6.85;;;6.25;;
10315;SDS011;5203;48.976;8.306;2023-05-14T08:59:55;6.60;;;6.10;;
10315;SDS011;5203;48.976;8.306;2023-05-14T09:02:27;7.53;;;6.10;;
10315;SDS011;5203;48.976;8.306;2023-05-14T09:04:57;6.85;;;6.22;;
10315;SDS011;5203;48.976;8.306;2023-05-14T09:07:24;6.68;;;6.15;;
10315;SDS011;5203;48.976;8.306;2023-05-14T09:09:50;6.90;;;6.40;;
10315;SDS011;5203;48.976;8.306;2023-05-14T09:12:17;6.47;;;5.97;;
10315;SDS011;5203;48.976;8.306;2023-05-14T09:14:43;6.38;;;5.82;;
10315;SDS011;5203;48.976;8.306;2023-05-14T09:17:09;6.50;;;6.00;;
10315;SDS011;5203;48.976;8.306;2023-05-14T09:19:39;6.57;;;5.97;;
10315;SDS011;5203;48.976;8.306;2023-05-14T09:22:10;7.28;;;6.78;;
10315;SDS011;5203;48.976;8.306;2023-05-14T09:24:37;6.50;;;6.00;;
10315;SDS011;5203;48.976;8.306;2023-05-14T09:27:03;5.93;;;5.50;;
10315;SDS011;5203;48.976;8.306;2023-05-14T09:29:30;5.13;;;4.80;;
10315;SDS011;5203;48.976;8.306;2023-05-14T09:31:56;5.55;;;5.15;;
10315;SDS011;5203;48.976;8.306;2023-05-14T09:36:54;5.75;;;5.35;;
10315;SDS011;5203;48.976;8.306;2023-05-14T09:39:22;6.13;;;5.72;;
10315;SDS011;5203;48.976;8.306;2023-05-14T09:41:48;6.07;;;5.68;;
10315;SDS011;5203;48.976;8.306;2023-05-14T09:44:15;6.65;;;6.15;;
10315;SDS011;5203;48.976;8.306;2023-05-14T09:46:41;6.13;;;5.72;;
10315;SDS011;5203;48.976;8.306;2023-05-14T09:49:07;6.22;;;5.78;;
10315;SDS011;5203;48.976;8.306;2023-05-14T09:51:33;6.20;;;5.80;;
10315;SDS011;5203;48.976;8.306;2023-05-14T09:54:01;5.60;;;5.30;;
10315;SDS011;5203;48.976;8.306;2023-05-14T09:56:28;6.30;;;5.80;;
10315;SDS011;5203;48.976;8.306;2023-05-14T09:58:54;6.40;;;5.90;;
10315;SDS011;5203;48.976;8.306;2023-05-14T10:01:20;5.95;;;5.45;;
10315;SDS011;5203;48.976;8.306;2023-05-14T10:03:46;6.88;;;6.43;;
10315;SDS011;5203;48.976;8.306;2023-05-14T10:06:13;7.25;;;6.75;;
10315;SDS011;5203;48.976;8.306;2023-05-14T10:08:43;6.85;;;6.25;;
10315;SDS011;5203;48.976;8.306;2023-05-14T10:11:12;7.18;;;6.65;;
10315;SDS011;5203;48.976;8.306;2023-05-14T10:13:40;6.30;;;5.70;;
10315;SDS011;5203;48.976;8.306;2023-05-14T10:16:18;7.20;;;6.70;;
10315;SDS011;5203;48.976;8.306;2023-05-14T10:18:51;6.63;;;6.13;;
10315;SDS011;5203;48.976;8.306;2023-05-14T10:21:20;6.95;;;6.47;;
10315;SDS011;5203;48.976;8.306;2023-05-14T10:23:47;7.40;;;6.70;;
10315;SDS011;5203;48.976;8.306;2023-05-14T10:26:15;7.03;;;6.53;;
10315;SDS011;5203;48.976;8.306;2023-05-14T10:28:41;6.70;;;6.30;;
10315;SDS011;5203;48.976;8.306;2023-05-14T10:31:09;6.28;;;5.88;;
10315;SDS011;5203;48.976;8.306;2023-05-14T10:33:46;6.43;;;6.03;;
10315;SDS011;5203;48.976;8.306;2023-05-14T10:36:14;6.60;;;6.10;;
10315;SDS011;5203;48.976;8.306;2023-05-14T10:38:41;6.88;;;6.38;;
10315;SDS011;5203;48.976;8.306;2023-05-14T10:41:10;7.35;;;6.63;;
10315;SDS011;5203;48.976;8.306;2023-05-14T10:43:39;7.57;;;7.05;;
10315;SDS011;5203;48.976;8.306;2023-05-14T10:46:06;7.25;;;6.75;;
10315;SDS011;5203;48.976;8.306;2023-05-14T10:48:33;7.05;;;6.57;;
10315;SDS011;5203;48.976;8.306;2023-05-14T10:51:00;6.38;;;5.97;;
10315;SDS011;5203;48.976;8.306;2023-05-14T10:53:34;6.80;;;6.25;;
10315;SDS011;5203;48.976;8.306;2023-05-14T10:56:08;6.60;;;6.10;;
10315;SDS011;5203;48.976;8.306;2023-05-14T10:58:35;7.18;;;6.60;;
10315;SDS011;5203;48.976;8.306;2023-05-14T11:01:06;7.07;;;6.45;;
10315;SDS011;5203;48.976;8.306;2023-05-14T11:03:44;6.72;;;6.22;;
10315;SDS011;5203;48.976;8.306;2023-05-14T11:06:11;7.20;;;6.70;;
10315;SDS011;5203;48.976;8.306;2023-05-14T11:08:38;6.57;;;6.18;;
10315;SDS011;5203;48.976;8.306;2023-05-14T11:11:05;5.72;;;5.43;;
10315;SDS011;5203;48.976;8.306;2023-05-14T11:13:31;6.70;;;6.30;;
10315;SDS011;5203;48.976;8.306;2023-05-14T11:15:58;6.75;;;6.35;;
10315;SDS011;5203;48.976;8.306;2023-05-14T11:18:26;6.93;;;6.32;;
10315;SDS011;5203;48.976;8.306;2023-05-14T11:21:00;7.30;;;6.80;;
10315;SDS011;5203;48.976;8.306;2023-05-14T11:23:26;9.77;;;8.98;;
10315;SDS011;5203;48.976;8.306;2023-05-14T11:25:52;7.40;;;6.90;;
10315;SDS011;5203;48.976;8.306;2023-05-14T11:28:22;7.20;;;6.70;;
10315;SDS011;5203;48.976;8.306;2023-05-14T11:30:49;6.32;;;5.93;;
10315;SDS011;5203;48.976;8.306;2023-05-14T11:33:16;6.32;;;5.93;;
10315;SDS011;5203;48.976;8.306;2023-05-14T11:35:43;6.95;;;6.55;;
10315;SDS011;5203;48.976;8.306;2023-05-14T11:38:17;7.35;;;6.85;;
10315;SDS011;5203;48.976;8.306;2023-05-14T11:40:53;7.40;;;6.90;;
10315;SDS011;5203;48.976;8.306;2023-05-14T11:43:19;6.68;;;6.28;;
10315;SDS011;5203;48.976;8.306;2023-05-14T11:45:51;6.93;;;6.53;;
10315;SDS011;5203;48.976;8.306;2023-05-14T11:48:21;6.78;;;6.18;;
10315;SDS011;5203;48.976;8.306;2023-05-14T11:50:48;6.95;;;6.20;;
10315;SDS011;5203;48.976;8.306;2023-05-14T11:53:28;6.28;;;5.88;;
10315;SDS011;5203;48.976;8.306;2023-05-14T11:55:55;6.53;;;6.10;;
10315;SDS011;5203;48.976;8.306;2023-05-14T11:58:23;6.60;;;6.10;;
10315;SDS011;5203;48.976;8.306;2023-05-14T12:00:50;6.40;;;5.90;;
10315;SDS011;5203;48.976;8.306;2023-05-14T12:03:20;6.53;;;5.95;;
10315;SDS011;5203;48.976;8.306;2023-05-14T12:05:59;6.60;;;6.20;;
10315;SDS011;5203;48.976;8.306;2023-05-14T12:08:27;6.88;;;6.28;;
10315;SDS011;5203;48.976;8.306;2023-05-14T12:10:54;6.38;;;5.97;;
10315;SDS011;5203;48.976;8.306;2023-05-14T12:13:20;6.53;;;6.13;;
10315;SDS011;5203;48.976;8.306;2023-05-14T12:15:53;7.55;;;6.85;;
10315;SDS011;5203;48.976;8.306;2023-05-14T12:18:20;7.38;;;6.88;;
10315;SDS011;5203;48.976;8.306;2023-05-14T12:20:49;7.97;;;7.40;;
10315;SDS011;5203;48.976;8.306;2023-05-14T12:23:16;7.40;;;6.80;;
10315;SDS011;5203;48.976;8.306;2023-05-14T12:25:52;7.28;;;6.70;;
10315;SDS011;5203;48.976;8.306;2023-05-14T12:28:18;6.82;;;6.43;;
10315;SDS011;5203;48.976;8.306;2023-05-14T12:30:47;7.35;;;6.85;;
10315;SDS011;5203;48.976;8.306;2023-05-14T12:33:19;7.20;;;6.47;;
10315;SDS011;5203;48.976;8.306;2023-05-14T12:35:47;7.22;;;6.72;;
10315;SDS011;5203;48.976;8.306;2023-05-14T12:38:13;6.88;;;6.47;;
10315;SDS011;5203;48.976;8.306;2023-05-14T12:40:39;6.97;;;6.47;;
10315;SDS011;5203;48.976;8.306;2023-05-14T12:43:04;7.57;;;7.00;;
10315;SDS011;5203;48.976;8.306;2023-05-14T12:45:30;7.10;;;6.60;;
10315;SDS011;5203;48.976;8.306;2023-05-14T12:47:56;7.93;;;7.32;;
10315;SDS011;5203;48.976;8.306;2023-05-14T12:50:21;6.72;;;6.32;;
10315;SDS011;5203;48.976;8.306;2023-05-14T12:52:47;7.20;;;6.70;;
10315;SDS011;5203;48.976;8.306;2023-05-14T12:55:13;7.35;;;6.80;;
10315;SDS011;5203;48.976;8.306;2023-05-14T12:57:38;7.50;;;7.03;;
10315;SDS011;5203;48.976;8.306;2023-05-14T13:00:04;6.93;;;6.47;;
10315;SDS011;5203;48.976;8.306;2023-05-14T13:02:31;7.22;;;6.72;;
10315;SDS011;5203;48.976;8.306;2023-05-14T13:04:57;6.85;;;6.38;;
10315;SDS011;5203;48.976;8.306;2023-05-14T13:07:24;7.80;;;7.05;;
10315;SDS011;5203;48.976;8.306;2023-05-14T13:09:49;6.97;;;6.47;;
10315;SDS011;5203;48.976;8.306;2023-05-14T13:12:15;7.00;;;6.55;;
10315;SDS011;5203;48.976;8.306;2023-05-14T13:14:40;7.05;;;6.55;;
10315;SDS011;5203;48.976;8.306;2023-05-14T13:17:06;8.05;;;7.55;;
10315;SDS011;5203;48.976;8.306;2023-05-14T13:19:32;7.13;;;6.55;;
10315;SDS011;5203;48.976;8.306;2023-05-14T13:21:57;7.35;;;6.85;;
10315;SDS011;5203;48.976;8.306;2023-05-14T13:24:23;7.03;;;6.40;;
10315;SDS011;5203;48.976;8.306;2023-05-14T13:26:49;6.40;;;6.00;;
10315;SDS011;5203;48.976;8.306;2023-05-14T13:29:14;6.70;;;6.28;;
10315;SDS011;5203;48.976;8.306;2023-05-14T13:31:40;6.90;;;6.50;;
10315;SDS011;5203;48.976;8.306;2023-05-14T13:34:06;7.10;;;6.70;;
10315;SDS011;5203;48.976;8.306;2023-05-14T13:36:32;7.75;;;7.15;;
10315;SDS011;5203;48.976;8.306;2023-05-14T13:38:57;7.70;;;7.20;;
10315;SDS011;5203;48.976;8.306;2023-05-14T13:41:24;7.65;;;7.15;;
10315;SDS011;5203;48.976;8.306;2023-05-14T13:43:50;7.47;;;7.07;;
10315;SDS011;5203;48.976;8.306;2023-05-14T13:46:15;6.82;;;6.43;;
10315;SDS011;5203;48.976;8.306;2023-05-14T13:48:41;7.40;;;7.00;;
10315;SDS011;5203;48.976;8.306;2023-05-14T13:51:07;6.78;;;6.38;;
10315;SDS011;5203;48.976;8.306;2023-05-14T13:53:32;7.47;;;7.07;;
10315;SDS011;5203;48.976;8.306;2023-05-14T13:55:58;8.50;;;8.00;;
10315;SDS011;5203;48.976;8.306;2023-05-14T13:58:25;8.13;;;7.63;;
10315;SDS011;5203;48.976;8.306;2023-05-14T14:00:51;7.80;;;7.30;;
10315;SDS011;5203;48.976;8.306;2023-05-14T14:03:17;7.20;;;6.80;;
10315;SDS011;5203;48.976;8.306;2023-05-14T14:05:43;8.27;;;7.78;;
10315;SDS011;5203;48.976;8.306;2023-05-14T14:08:09;7.80;;;7.30;;
10315;SDS011;5203;48.976;8.306;2023-05-14T14:10:35;7.97;;;7.30;;
10315;SDS011;5203;48.976;8.306;2023-05-14T14:13:03;8.43;;;8.00;;
10315;SDS011;5203;48.976;8.306;2023-05-14T14:15:28;7.38;;;6.97;;
10315;SDS011;5203;48.976;8.306;2023-05-14T14:17:54;7.38;;;6.88;;
10315;SDS011;5203;48.976;8.306;2023-05-14T14:20:20;7.80;;;7.30;;
10315;SDS011;5203;48.976;8.306;2023-05-14T14:22:45;8.27;;;7.78;;
10315;SDS011;5203;48.976;8.306;2023-05-14T14:25:11;7.40;;;7.00;;
10315;SDS011;5203;48.976;8.306;2023-05-14T14:27:37;7.38;;;6.88;;
10315;SDS011;5203;48.976;8.306;2023-05-14T14:30:07;7.65;;;7.15;;
10315;SDS011;5203;48.976;8.306;2023-05-14T14:32:47;7.90;;;7.40;;
10315;SDS011;5203;48.976;8.306;2023-05-14T14:35:14;8.32;;;7.82;;
10315;SDS011;5203;48.976;8.306;2023-05-14T14:37:41;7.63;;;7.13;;
10315;SDS011;5203;48.976;8.306;2023-05-14T14:40:09;7.18;;;6.75;;
10315;SDS011;5203;48.976;8.306;2023-05-14T14:42:35;7.68;;;7.07;;
10315;SDS011;5203;48.976;8.306;2023-05-14T14:45:05;7.07;;;6.57;;
10315;SDS011;5203;48.976;8.306;2023-05-14T14:47:31;7.43;;;7.03;;
10315;SDS011;5203;48.976;8.306;2023-05-14T14:49:57;7.15;;;6.75;;
10315;SDS011;5203;48.976;8.306;2023-05-14T14:52:23;7.60;;;7.10;;
10315;SDS011;5203;48.976;8.306;2023-05-14T14:54:50;7.50;;;7.10;;
10315;SDS011;5203;48.976;8.306;2023-05-14T14:57:16;8.45;;;7.93;;
10315;SDS011;5203;48.976;8.306;2023-05-14T14:59:41;8.52;;;8.13;;
10315;SDS011;5203;48.976;8.306;2023-05-14T15:02:08;8.88;;;8.43;;